createdAt,value
2024-01-20T00:00:46.505Z,17.90
2024-01-20T00:03:34.755Z,16.10
2024-01-20T00:06:03.334Z,14.80
2024-01-20T00:08:33.112Z,15.90
2024-01-20T00:11:01.588Z,15.70
2024-01-20T00:13:30.704Z,15.00
2024-01-20T00:16:00.448Z,16.00
2024-01-20T00:18:29.217Z,9.00
2024-01-20T00:20:57.958Z,14.70
2024-01-20T00:23:26.779Z,14.80
2024-01-20T00:25:55.224Z,12.70
2024-01-20T00:28:23.709Z,12.20
2024-01-20T00:30:55.101Z,15.50
2024-01-20T00:33:23.854Z,13.20
2024-01-20T00:35:52.598Z,15.10
2024-01-20T00:38:20.948Z,14.60
2024-01-20T00:40:49.382Z,7.60
2024-01-20T00:43:23.228Z,6.90
2024-01-20T00:45:52.788Z,14.60
2024-01-20T00:48:21.593Z,13.20
2024-01-20T00:50:49.850Z,13.80
2024-01-20T00:53:18.241Z,17.50
2024-01-20T00:55:47.257Z,15.70
2024-01-20T00:58:15.535Z,10.70
2024-01-20T01:00:44.014Z,13.40
2024-01-20T01:03:12.456Z,12.30
2024-01-20T01:05:40.816Z,15.80
2024-01-20T01:08:14.169Z,12.50
2024-01-20T01:10:43.281Z,13.50
2024-01-20T01:13:11.680Z,28.70
2024-01-20T01:15:39.914Z,8.80
2024-01-20T01:18:10.048Z,5.10
2024-01-20T01:20:38.357Z,5.00
2024-01-20T01:23:06.758Z,8.40
2024-01-20T01:25:35.148Z,6.90
2024-01-20T01:28:03.865Z,11.00
2024-01-20T01:30:32.854Z,11.70
2024-01-20T01:33:01.214Z,12.70
2024-01-20T01:35:29.781Z,7.10
2024-01-20T01:38:15.026Z,10.30
2024-01-20T01:40:59.783Z,10.90
2024-01-20T01:43:30.734Z,9.70
2024-01-20T01:46:06.159Z,11.10
2024-01-20T01:48:35.240Z,8.80
2024-01-20T01:51:05.678Z,10.00
2024-01-20T01:53:35.495Z,8.20
2024-01-20T01:56:06.363Z,10.10
2024-01-20T01:58:34.649Z,5.60
2024-01-20T02:01:03.042Z,8.90
2024-01-20T02:03:31.667Z,10.10
2024-01-20T02:06:00.141Z,8.50
2024-01-20T02:08:29.450Z,7.90
2024-01-20T02:10:58.850Z,10.00
2024-01-20T02:13:27.144Z,9.70
2024-01-20T02:15:55.753Z,10.70
2024-01-20T02:18:24.266Z,9.00
2024-01-20T02:20:52.823Z,8.40
2024-01-20T02:23:21.609Z,11.30
2024-01-20T02:25:49.841Z,10.80
2024-01-20T02:28:18.203Z,11.40
2024-01-20T02:30:48.062Z,9.70
2024-01-20T02:33:16.585Z,7.20
2024-01-20T02:35:45.118Z,13.30
2024-01-20T02:38:13.592Z,2.20
2024-01-20T02:40:41.817Z,5.60
2024-01-20T02:43:10.113Z,6.60
2024-01-20T02:45:38.429Z,8.00
2024-01-20T02:48:07.471Z,16.40
2024-01-20T02:50:35.954Z,25.70
2024-01-20T02:53:04.387Z,17.70
2024-01-20T02:55:33.743Z,13.80
2024-01-20T02:58:02.380Z,9.40
2024-01-20T03:00:30.651Z,10.70
2024-01-20T03:02:59.013Z,13.80
2024-01-20T03:05:27.430Z,13.40
2024-01-20T03:07:56.019Z,10.10
2024-01-20T03:10:24.510Z,10.80
2024-01-20T03:12:52.864Z,10.20
2024-01-20T03:15:21.333Z,6.00
2024-01-20T03:17:49.691Z,5.80
2024-01-20T03:20:18.011Z,11.50
2024-01-20T03:22:46.179Z,15.30
2024-01-20T03:25:14.789Z,11.10
2024-01-20T03:27:43.160Z,9.30
2024-01-20T03:30:11.926Z,11.50
2024-01-20T03:32:40.275Z,9.20
2024-01-20T03:35:09.121Z,7.20
2024-01-20T03:37:37.360Z,6.50
2024-01-20T03:40:06.057Z,1.70
2024-01-20T03:42:34.501Z,13.60
2024-01-20T03:45:03.182Z,13.50
2024-01-20T03:47:33.210Z,11.30
2024-01-20T03:50:05.280Z,13.70
2024-01-20T03:52:33.864Z,10.10
2024-01-20T03:55:02.245Z,12.50
2024-01-20T03:57:30.597Z,10.00
2024-01-20T03:59:59.370Z,12.50
2024-01-20T04:02:29.087Z,14.40
2024-01-20T04:04:57.586Z,7.60
2024-01-20T04:07:26.168Z,5.70
2024-01-20T04:09:54.522Z,12.20
2024-01-20T04:12:22.836Z,9.70
2024-01-20T04:14:51.194Z,7.10
2024-01-20T04:17:19.630Z,4.20
2024-01-20T04:19:47.892Z,11.60
2024-01-20T04:22:16.105Z,10.10
2024-01-20T04:24:44.264Z,11.10
2024-01-20T04:27:12.713Z,12.20
2024-01-20T04:29:41.173Z,12.90
2024-01-20T04:32:09.473Z,6.80
2024-01-20T04:34:37.866Z,3.20
2024-01-20T04:37:07.668Z,8.10
2024-01-20T04:39:36.030Z,7.80
2024-01-20T04:42:04.853Z,5.60
2024-01-20T04:44:33.260Z,5.20
2024-01-20T04:47:01.385Z,6.80
2024-01-20T04:49:30.066Z,8.60
2024-01-20T04:52:03.104Z,6.10
2024-01-20T04:54:31.584Z,12.40
2024-01-20T04:56:59.946Z,11.90
2024-01-20T04:59:28.422Z,11.40
2024-01-20T05:01:56.626Z,11.90
2024-01-20T05:04:24.855Z,11.90
2024-01-20T05:06:53.209Z,11.30
2024-01-20T05:09:21.839Z,12.50
2024-01-20T05:11:50.429Z,10.80
2024-01-20T05:14:18.787Z,9.50
2024-01-20T05:16:46.993Z,6.20
2024-01-20T05:19:15.634Z,5.20
2024-01-20T05:21:45.301Z,11.80
2024-01-20T05:24:15.403Z,4.90
2024-01-20T05:26:44.394Z,5.80
2024-01-20T05:29:12.995Z,11.40
2024-01-20T05:31:41.329Z,11.40
2024-01-20T05:34:09.820Z,14.20
2024-01-20T05:36:38.799Z,8.80
2024-01-20T05:39:07.263Z,10.60
2024-01-20T05:41:35.595Z,13.60
2024-01-20T05:44:04.225Z,10.40
2024-01-20T05:46:32.692Z,9.10
2024-01-20T05:49:01.199Z,13.90
2024-01-20T05:51:29.737Z,10.00
2024-01-20T05:53:58.605Z,11.30
2024-01-20T05:56:27.033Z,8.20
2024-01-20T05:58:55.151Z,7.40
2024-01-20T06:01:23.530Z,12.60
2024-01-20T06:03:52.117Z,7.50
2024-01-20T06:06:20.525Z,16.80
2024-01-20T06:08:48.880Z,16.60
2024-01-20T06:11:17.094Z,13.10
2024-01-20T06:13:45.432Z,12.90
2024-01-20T06:16:14.304Z,16.90
2024-01-20T06:18:42.702Z,15.70
2024-01-20T06:21:10.924Z,9.30
2024-01-20T06:23:39.491Z,8.50
2024-01-20T06:26:07.631Z,22.00
2024-01-20T06:28:35.790Z,12.10
2024-01-20T06:31:04.431Z,16.50
2024-01-20T06:33:32.838Z,12.20
2024-01-20T06:36:01.301Z,14.90
2024-01-20T06:38:29.690Z,8.80
2024-01-20T06:40:58.122Z,11.00
2024-01-20T06:43:26.555Z,10.30
2024-01-20T06:45:54.887Z,7.40
2024-01-20T06:48:23.207Z,13.50
2024-01-20T06:50:51.650Z,7.30
2024-01-20T06:53:19.854Z,11.50
2024-01-20T06:55:48.127Z,16.70
2024-01-20T06:58:16.483Z,7.10
2024-01-20T07:00:44.876Z,9.60
2024-01-20T07:03:13.622Z,14.10
2024-01-20T07:05:42.890Z,11.90
2024-01-20T07:08:11.782Z,12.10
2024-01-20T07:10:40.408Z,12.00
2024-01-20T07:13:10.708Z,7.60
2024-01-20T07:15:39.628Z,15.30
2024-01-20T07:18:08.480Z,15.50
2024-01-20T07:20:36.829Z,6.70
2024-01-20T07:23:05.017Z,6.50
2024-01-20T07:25:37.794Z,10.30
2024-01-20T07:28:06.327Z,15.50
2024-01-20T07:30:34.893Z,20.80
2024-01-20T07:33:03.491Z,17.80
2024-01-20T07:35:31.947Z,17.20
2024-01-20T07:38:00.151Z,10.40
2024-01-20T07:40:28.472Z,14.50
2024-01-20T07:42:57.077Z,12.20
2024-01-20T07:45:28.323Z,13.60
2024-01-20T07:47:56.816Z,19.80
2024-01-20T07:50:25.452Z,14.20
2024-01-20T07:52:53.955Z,15.40
2024-01-20T07:55:22.250Z,15.30
2024-01-20T07:57:50.780Z,12.40
2024-01-20T08:00:19.415Z,12.90
2024-01-20T08:02:48.236Z,13.60
2024-01-20T08:05:16.971Z,9.90
2024-01-20T08:07:45.431Z,16.00
2024-01-20T08:10:13.887Z,13.60
2024-01-20T08:12:42.762Z,12.70
2024-01-20T08:15:11.147Z,18.00
2024-01-20T08:17:40.815Z,14.40
2024-01-20T08:20:11.157Z,6.10
2024-01-20T08:22:39.422Z,17.30
2024-01-20T08:25:08.270Z,13.30
2024-01-20T08:27:36.950Z,14.20
2024-01-20T08:30:06.172Z,11.50
2024-01-20T08:32:34.577Z,8.70
2024-01-20T08:35:02.936Z,13.10
2024-01-20T08:37:31.317Z,9.50
2024-01-20T08:39:59.817Z,11.20
2024-01-20T08:42:28.780Z,14.80
2024-01-20T08:44:57.073Z,13.70
2024-01-20T08:47:25.421Z,12.80
2024-01-20T08:49:54.117Z,11.70
2024-01-20T08:52:22.587Z,13.30
2024-01-20T08:54:51.034Z,15.60
2024-01-20T08:57:19.624Z,14.60
2024-01-20T08:59:48.258Z,17.60
2024-01-20T09:02:16.614Z,13.60
2024-01-20T09:04:44.903Z,10.30
2024-01-20T09:07:13.174Z,12.60
2024-01-20T09:09:41.392Z,9.10
2024-01-20T09:12:09.692Z,17.40
2024-01-20T09:14:38.053Z,11.90
2024-01-20T09:17:06.871Z,14.90
2024-01-20T09:19:35.200Z,10.30
2024-01-20T09:22:03.527Z,6.60
2024-01-20T09:24:31.954Z,7.60
2024-01-20T09:27:01.204Z,10.70
2024-01-20T09:29:29.697Z,11.70
2024-01-20T09:31:58.261Z,6.30
2024-01-20T09:34:26.550Z,10.40
2024-01-20T09:36:54.831Z,12.60
2024-01-20T09:39:23.203Z,13.40
2024-01-20T09:41:52.251Z,12.10
2024-01-20T09:44:21.293Z,13.60
2024-01-20T09:46:49.742Z,11.70
2024-01-20T09:49:18.242Z,11.50
2024-01-20T09:51:52.308Z,15.50
2024-01-20T09:54:24.119Z,13.10
2024-01-20T09:56:53.029Z,8.10
2024-01-20T09:59:23.865Z,12.20
2024-01-20T10:01:53.419Z,11.00
2024-01-20T10:04:24.913Z,9.20
2024-01-20T10:06:55.328Z,11.90
2024-01-20T10:09:24.286Z,10.00
2024-01-20T10:11:52.965Z,8.50
2024-01-20T10:14:21.141Z,7.60
2024-01-20T10:16:50.463Z,11.00
2024-01-20T10:19:19.040Z,11.10
2024-01-20T10:21:47.681Z,13.50
2024-01-20T10:24:24.980Z,11.80
2024-01-20T10:26:54.740Z,10.10
2024-01-20T10:29:23.204Z,11.90
2024-01-20T10:31:52.021Z,10.00
2024-01-20T10:34:21.764Z,12.90
2024-01-20T10:37:01.094Z,11.90
2024-01-20T10:39:31.252Z,13.90
2024-01-20T10:42:02.804Z,8.50
2024-01-20T10:44:40.936Z,8.10
2024-01-20T10:47:25.510Z,16.10
2024-01-20T10:49:55.319Z,11.00
2024-01-20T10:52:24.079Z,10.50
2024-01-20T10:54:52.541Z,12.20
2024-01-20T10:57:21.661Z,16.00
2024-01-20T10:59:51.332Z,13.70
2024-01-20T11:02:21.059Z,11.50
2024-01-20T11:04:49.625Z,16.60
2024-01-20T11:07:25.643Z,11.10
2024-01-20T11:09:58.283Z,15.00
2024-01-20T11:14:59.941Z,12.80
2024-01-20T11:17:30.270Z,11.50
2024-01-20T11:20:07.949Z,11.30
2024-01-20T11:22:47.709Z,11.00
2024-01-20T11:25:19.372Z,15.00
2024-01-20T11:27:49.777Z,14.00
2024-01-20T11:30:34.776Z,10.50
2024-01-20T11:33:04.448Z,12.00
2024-01-20T11:35:33.517Z,10.50
2024-01-20T11:38:02.944Z,11.00
2024-01-20T11:40:31.741Z,10.80
2024-01-20T11:43:07.871Z,8.90
2024-01-20T11:45:36.485Z,10.60
2024-01-20T11:48:06.005Z,9.20
2024-01-20T11:50:35.531Z,10.10
2024-01-20T11:53:04.511Z,11.90
2024-01-20T11:55:34.554Z,11.50
2024-01-20T11:58:04.959Z,14.40
2024-01-20T12:00:33.766Z,8.60
2024-01-20T12:03:02.468Z,12.00
2024-01-20T12:05:35.488Z,12.30
2024-01-20T12:08:05.565Z,11.60
2024-01-20T12:10:34.486Z,7.10
2024-01-20T12:13:05.533Z,12.40
2024-01-20T12:15:37.839Z,11.40
2024-01-20T12:18:08.021Z,9.30
2024-01-20T12:20:39.713Z,9.10
2024-01-20T12:23:08.124Z,9.00
2024-01-20T12:25:36.558Z,8.50
2024-01-20T12:28:05.475Z,11.90
2024-01-20T12:30:33.954Z,11.30
2024-01-20T12:33:02.706Z,13.10
2024-01-20T12:35:31.152Z,11.60
2024-01-20T12:38:00.474Z,8.80
2024-01-20T12:40:31.319Z,15.40
2024-01-20T12:42:59.891Z,13.80
2024-01-20T12:45:30.874Z,11.40
2024-01-20T12:47:59.570Z,11.70
2024-01-20T12:50:29.616Z,14.80
2024-01-20T12:52:58.420Z,17.20
2024-01-20T12:55:26.830Z,11.50
2024-01-20T12:57:55.594Z,8.90
2024-01-20T13:00:24.753Z,11.90
2024-01-20T13:02:53.318Z,11.20
2024-01-20T13:05:22.231Z,15.40
2024-01-20T13:07:50.680Z,10.60
2024-01-20T13:10:19.342Z,9.40
2024-01-20T13:12:47.941Z,11.60
2024-01-20T13:15:16.501Z,19.70
2024-01-20T13:17:46.194Z,8.40
2024-01-20T13:20:14.716Z,10.80
2024-01-20T13:22:43.544Z,14.80
2024-01-20T13:25:11.905Z,15.30
2024-01-20T13:27:41.467Z,10.20
2024-01-20T13:30:11.102Z,12.80
2024-01-20T13:32:40.361Z,22.70
2024-01-20T13:35:10.475Z,16.80
2024-01-20T13:37:39.386Z,13.80
2024-01-20T13:40:11.028Z,10.10
2024-01-20T13:42:42.458Z,14.30
2024-01-20T13:45:12.991Z,14.40
2024-01-20T13:47:41.495Z,6.70
2024-01-20T13:50:11.389Z,12.60
2024-01-20T13:52:40.295Z,9.50
2024-01-20T13:55:09.141Z,7.70
2024-01-20T13:57:38.202Z,12.50
2024-01-20T14:00:07.415Z,9.40
2024-01-20T14:02:37.047Z,9.40
2024-01-20T14:05:06.856Z,10.10
2024-01-20T14:07:35.644Z,7.00
2024-01-20T14:10:06.953Z,12.00
2024-01-20T14:12:37.294Z,13.50
2024-01-20T14:15:06.756Z,7.50
2024-01-20T14:17:35.727Z,6.50
2024-01-20T14:20:04.796Z,7.90
2024-01-20T14:22:35.188Z,9.90
2024-01-20T14:25:06.470Z,15.00
2024-01-20T14:27:35.675Z,18.20
2024-01-20T14:30:05.624Z,10.90
2024-01-20T14:32:34.648Z,9.50
2024-01-20T14:35:04.069Z,11.70
2024-01-20T14:37:32.524Z,12.70
2024-01-20T14:40:01.032Z,13.80
2024-01-20T14:42:30.141Z,11.90
2024-01-20T14:44:58.708Z,6.20
2024-01-20T14:47:27.375Z,6.30
2024-01-20T14:49:56.889Z,12.90
2024-01-20T14:52:25.529Z,14.40
2024-01-20T14:54:54.300Z,14.60
2024-01-20T14:57:22.664Z,11.90
2024-01-20T14:59:53.182Z,9.30
2024-01-20T15:02:21.750Z,12.20
2024-01-20T15:04:50.310Z,11.90
2024-01-20T15:07:20.007Z,8.10
2024-01-20T15:09:49.048Z,7.90
2024-01-20T15:12:17.768Z,12.10
2024-01-20T15:14:46.269Z,8.60
2024-01-20T15:17:15.194Z,13.80
2024-01-20T15:19:43.943Z,13.60
2024-01-20T15:22:16.416Z,10.40
2024-01-20T15:24:45.803Z,16.80
2024-01-20T15:27:14.807Z,20.10
2024-01-20T15:29:46.561Z,27.60
2024-01-20T15:32:20.220Z,27.10
2024-01-20T15:34:50.739Z,32.10
2024-01-20T15:37:20.352Z,41.80
2024-01-20T15:39:51.702Z,39.00
2024-01-20T15:42:22.724Z,27.40
2024-01-20T15:44:52.695Z,27.70
2024-01-20T15:47:21.219Z,29.50
2024-01-20T15:49:49.763Z,18.40
2024-01-20T15:52:19.065Z,13.40
2024-01-20T15:54:48.319Z,8.60
2024-01-20T15:57:16.909Z,18.70
2024-01-20T15:59:45.329Z,17.30
2024-01-20T16:02:13.966Z,20.60
2024-01-20T16:04:42.289Z,22.90
2024-01-20T16:07:12.409Z,25.20
2024-01-20T16:09:43.541Z,26.80
2024-01-20T16:12:12.117Z,22.70
2024-01-20T16:14:40.685Z,27.30
2024-01-20T16:17:10.858Z,28.00
2024-01-20T16:19:39.259Z,36.70
2024-01-20T16:22:07.835Z,38.70
2024-01-20T16:24:36.687Z,34.50
2024-01-20T16:27:05.665Z,17.20
2024-01-20T16:29:34.260Z,45.10
2024-01-20T16:32:03.528Z,36.90
2024-01-20T16:34:32.646Z,42.30
2024-01-20T16:37:01.381Z,36.60
2024-01-20T16:39:29.946Z,19.90
2024-01-20T16:41:58.671Z,35.00
2024-01-20T16:44:27.425Z,30.40
2024-01-20T16:46:55.895Z,18.60
2024-01-20T16:49:25.956Z,12.20
2024-01-20T16:51:57.867Z,10.00
2024-01-20T16:54:26.632Z,47.70
2024-01-20T16:56:56.592Z,21.60
2024-01-20T16:59:25.608Z,20.10
2024-01-20T17:01:54.051Z,37.80
2024-01-20T17:04:22.825Z,36.60
2024-01-20T17:06:52.168Z,36.20
2024-01-20T17:09:20.816Z,26.50
2024-01-20T17:11:49.324Z,12.80
2024-01-20T17:14:19.526Z,18.20
2024-01-20T17:16:48.879Z,21.30
2024-01-20T17:19:20.399Z,17.80
2024-01-20T17:21:49.033Z,27.90
2024-01-20T17:24:17.879Z,33.40
2024-01-20T17:26:46.264Z,38.40
2024-01-20T17:29:14.586Z,23.20
2024-01-20T17:31:43.308Z,29.40
2024-01-20T17:34:13.623Z,36.40
2024-01-20T17:36:42.087Z,40.50
2024-01-20T17:39:11.042Z,42.50
2024-01-20T17:41:41.417Z,15.60
2024-01-20T17:44:09.920Z,30.60
2024-01-20T17:46:46.706Z,16.00
2024-01-20T17:49:16.313Z,11.10
2024-01-20T17:51:47.207Z,41.70
2024-01-20T17:54:15.588Z,33.50
2024-01-20T17:56:44.021Z,36.50
2024-01-20T17:59:12.413Z,23.40
2024-01-20T18:01:40.877Z,16.50
2024-01-20T18:04:09.451Z,34.60
2024-01-20T18:06:38.158Z,30.90
2024-01-20T18:09:06.602Z,34.30
2024-01-20T18:11:35.325Z,38.30
2024-01-20T18:14:04.232Z,38.40
2024-01-20T18:16:33.864Z,34.00
2024-01-20T18:19:02.579Z,43.20
2024-01-20T18:21:31.567Z,41.30
2024-01-20T18:24:00.179Z,46.80
2024-01-20T18:26:28.895Z,50.00
2024-01-20T18:28:58.916Z,53.70
2024-01-20T18:31:35.749Z,50.00
2024-01-20T18:34:34.268Z,47.20
2024-01-20T18:37:20.702Z,44.80
2024-01-20T18:40:02.799Z,48.90
2024-01-20T18:42:33.069Z,52.20
2024-01-20T18:45:06.632Z,32.00
2024-01-20T18:47:35.994Z,24.10
2024-01-20T18:50:07.156Z,26.70
2024-01-20T18:52:38.310Z,15.90
2024-01-20T18:55:07.052Z,20.90
2024-01-20T18:57:36.726Z,43.50
2024-01-20T19:00:05.992Z,49.80
2024-01-20T19:02:34.850Z,51.60
2024-01-20T19:05:15.119Z,55.60
2024-01-20T19:07:55.563Z,13.50
2024-01-20T19:10:25.882Z,25.20
2024-01-20T19:12:55.822Z,40.00
2024-01-20T19:15:25.777Z,21.70
2024-01-20T19:17:54.916Z,13.10
2024-01-20T19:20:25.158Z,35.20
2024-01-20T19:22:53.806Z,63.90
2024-01-20T19:25:22.444Z,38.40
2024-01-20T19:27:53.470Z,24.30
2024-01-20T19:30:22.445Z,29.90
2024-01-20T19:32:53.006Z,32.30
2024-01-20T19:35:23.475Z,53.00
2024-01-20T19:37:53.810Z,36.90
2024-01-20T19:40:22.392Z,59.60
2024-01-20T19:42:51.167Z,55.50
2024-01-20T19:45:20.071Z,45.70
2024-01-20T19:47:50.711Z,24.30
2024-01-20T19:50:23.547Z,12.70
2024-01-20T19:52:53.326Z,50.90
2024-01-20T19:55:22.042Z,72.10
2024-01-20T19:57:50.536Z,68.20
2024-01-20T20:00:22.806Z,64.00
2024-01-20T20:02:51.979Z,58.90
2024-01-20T20:05:21.801Z,63.00
2024-01-20T20:08:00.235Z,50.80
2024-01-20T20:10:31.782Z,64.50
2024-01-20T20:13:00.720Z,47.50
2024-01-20T20:15:29.437Z,28.30
2024-01-20T20:17:58.361Z,22.40
2024-01-20T20:20:27.079Z,51.50
2024-01-20T20:22:55.622Z,17.50
2024-01-20T20:25:24.261Z,29.30
2024-01-20T20:27:53.081Z,83.20
2024-01-20T20:30:28.195Z,34.80
2024-01-20T20:32:57.655Z,21.60
2024-01-20T20:35:26.444Z,23.60
2024-01-20T20:37:58.269Z,22.50
2024-01-20T20:40:26.816Z,52.60
2024-01-20T20:42:55.479Z,34.70
2024-01-20T20:45:24.179Z,53.50
2024-01-20T20:47:52.798Z,46.60
2024-01-20T20:50:21.957Z,55.20
2024-01-20T20:52:50.407Z,70.50
2024-01-20T20:55:18.903Z,18.40
2024-01-20T20:57:47.336Z,16.50
2024-01-20T21:00:16.763Z,17.70
2024-01-20T21:02:45.861Z,35.20
2024-01-20T21:05:17.545Z,76.00
2024-01-20T21:07:47.650Z,49.60
2024-01-20T21:10:18.503Z,36.80
2024-01-20T21:12:47.877Z,40.40
2024-01-20T21:15:17.054Z,36.90
2024-01-20T21:17:45.766Z,43.40
2024-01-20T21:20:14.560Z,50.30
2024-01-20T21:22:43.886Z,24.60
2024-01-20T21:25:15.130Z,26.70
2024-01-20T21:27:43.494Z,23.90
2024-01-20T21:30:12.435Z,12.40
2024-01-20T21:32:40.868Z,18.90
2024-01-20T21:35:09.684Z,24.30
2024-01-20T21:37:38.162Z,36.90
2024-01-20T21:40:08.349Z,62.80
2024-01-20T21:42:37.112Z,56.40
2024-01-20T21:45:06.246Z,53.50
2024-01-20T21:47:35.128Z,16.80
2024-01-20T21:50:04.246Z,16.10
2024-01-20T21:52:32.847Z,16.30
2024-01-20T21:55:06.531Z,40.00
2024-01-20T21:57:37.919Z,54.90
2024-01-20T22:00:10.209Z,51.90
2024-01-20T22:02:45.112Z,49.80
2024-01-20T22:05:13.979Z,50.40
2024-01-20T22:07:43.080Z,42.90
2024-01-20T22:10:13.516Z,33.10
2024-01-20T22:12:42.642Z,14.20
2024-01-20T22:15:11.338Z,39.20
2024-01-20T22:17:39.886Z,30.60
2024-01-20T22:20:09.723Z,16.30
2024-01-20T22:22:43.382Z,15.00
2024-01-20T22:25:12.592Z,15.10
2024-01-20T22:27:41.088Z,41.60
2024-01-20T22:30:48.094Z,58.30
2024-01-20T22:33:25.947Z,49.00
2024-01-20T22:35:54.354Z,44.60
2024-01-20T22:38:22.969Z,54.20
2024-01-20T22:40:51.884Z,23.30
2024-01-20T22:43:20.299Z,24.40
2024-01-20T22:45:52.372Z,42.90
2024-01-20T22:48:33.506Z,51.60
2024-01-20T22:51:05.174Z,52.00
2024-01-20T22:53:35.699Z,50.50
2024-01-20T22:56:05.155Z,53.60
2024-01-20T22:58:35.302Z,26.90
2024-01-20T23:01:03.836Z,19.40
2024-01-20T23:03:32.485Z,43.60
2024-01-20T23:06:01.015Z,34.70
2024-01-20T23:08:29.381Z,45.00
2024-01-20T23:11:03.248Z,56.80
2024-01-20T23:13:31.545Z,47.20
2024-01-20T23:16:03.608Z,16.90
2024-01-20T23:18:32.347Z,18.60
2024-01-20T23:21:00.806Z,12.30
2024-01-20T23:23:31.545Z,10.60
2024-01-20T23:26:00.538Z,24.00
2024-01-20T23:28:28.985Z,14.20
2024-01-20T23:30:57.286Z,51.80
2024-01-20T23:33:25.730Z,42.60
2024-01-20T23:35:54.500Z,29.70
2024-01-20T23:38:23.659Z,34.90
2024-01-20T23:40:51.985Z,10.50
2024-01-20T23:43:23.551Z,12.00
2024-01-20T23:45:52.819Z,32.60
2024-01-20T23:48:21.954Z,5.80
2024-01-20T23:50:50.488Z,46.20
2024-01-20T23:53:19.108Z,40.10
2024-01-20T23:55:47.469Z,39.90
2024-01-20T23:58:16.089Z,25.90
